East Lewisburg, Pennsylvania
Current Conditions -  °F | °C
As of 10:53 AM on Friday 21 Nov 2014 (Local Time) from KSEG Reporting Station
Few Clouds Few Clouds  
Wind Chill: 18°   Ceiling: Unl
Heat Index: 29°   Visibility: 10mi
Dew Point:   Wind: 14mph
Humidity: 43%   Direction: 320°NW
Pressure: 30.39"   Gusts: 22mph
Location:  41.0147°N, 76.8093°W
Report Text: KSEG 211553Z AUTO 32012G19KT 10SM FEW047 M02/M13 A3039 RMK AO2 SLP298 T10171128
Loading
Personal Weather Stations






























Interactive Weather Map New forecast layout! Learn more

10-Day Weather Forecast

Advertisements
Track Severe Weather on mobile